Aeroporto :
LOGIN :

Iscrizione | Disclaimer

   EN    FR    IT 

 










Sommario :    VFR   VFR Marginale   IFR   IFR Intensivo   IFR Molto Intensivo
Visibilità : 
Base nubi : 
>= 8 km
>= 3000ft
5 / 8 km
1000 / 3000 ft
1500m / 5 km
500 / 1000 ft
800 / 1500m
200 / 500 ft
< 800m
< 200 ft
Simboli :   Temporali  Nebbia  Neve Forte  Precipitazioni Forti  Vento > 20 kt
SIGMETs :   Varie  Temporali  Ghiacco  Turbolenza  Onda orograficha  Ceneri Vulcaniche







- Altitudine del aeroporto : 56 ft


LPOV - Ovar Air Base

ULTIMO METAR :
  • 222000Z 35004KT CAVOK 13/09 Q1021

METARs OBSOLETI :
  • 221900Z 36006KT CAVOK 14/09 Q1024
  • 221800Z 35008KT CAVOK 16/08 Q1024
  • 221700Z 33009KT CAVOK 17/05 Q1024

TAF TAF LPOV
Valido dal 22 a 18 ore il 23 a 18 ore UTC


221717Z 2218/2318 35010KT CAVOK
BECMG 2222/2224 07005KT
BECMG 2308/2310 VRB02KT
BECMG 2312/2314 33010KT
Nessun NOTAM noto per questo aeroporto.



MetMap, La meteo Aeronautica in un colpo d'occhio ! - Copyright ORBIFLY Dicembre 2007 - Disclaimer

ORBIFLY MET'MAP TEAM :

Programmazione e sviluppo : Alexandra Zaïnal
Concezione e sviluppo : Baudouin d'Aumeries
Co-Programmazione e sviluppo : Marc-Olivier Méhu
Supporto tecnico e logistico : Manuel Goepfert
Aiuto per la traduzione : Arnaldo La Scala

Contatto : metmap@orbifly.com




FONTI E CREDITI :

   NOAA